Time,TemperatureF,DewpointF,PressureIn,WindDirection,WindDirectionDegrees,WindSpeedMPH,WindSpeedGustMPH,Humidity,HourlyPrecipIn,Conditions,Clouds,dailyrainin,SoftwareType,DateUTC
2013-06-24 00:12:00,55.0,52.0,-100.00,South,180,3.0,4.0,91,-99.99,,,-99.99,,2013-06-24 07:12:00,
2013-06-24 00:25:00,55.0,52.0,-100.00,SW,225,3.0,6.0,91,-99.99,,,-99.99,,2013-06-24 07:25:00,
2013-06-24 00:44:00,54.0,51.0,-100.00,SW,225,6.0,7.0,90,-99.99,,,-99.99,,2013-06-24 07:44:00,
2013-06-24 00:55:00,54.0,51.0,-100.00,SW,225,6.0,9.0,89,-99.99,,,-99.99,,2013-06-24 07:55:00,
2013-06-24 01:12:00,54.0,50.0,-100.00,SW,225,7.0,9.0,87,-99.99,,,-99.99,,2013-06-24 08:12:00,
2013-06-24 01:23:00,54.0,49.0,-100.00,SW,225,5.0,8.0,84,-99.99,,,-99.99,,2013-06-24 08:23:00,
2013-06-24 01:33:00,54.0,49.0,-100.00,SW,225,5.0,8.0,84,-99.99,,,-99.99,,2013-06-24 08:33:00,
2013-06-24 01:44:00,54.0,48.0,-100.00,SW,225,6.0,8.0,82,-99.99,,,-99.99,,2013-06-24 08:44:00,
2013-06-24 01:54:00,54.0,48.0,-100.00,SW,225,6.0,8.0,80,-99.99,,,-99.99,,2013-06-24 08:54:00,
2013-06-24 02:12:00,54.0,48.0,-100.00,SW,225,4.0,6.0,80,-99.99,,,-99.99,,2013-06-24 09:12:00,
2013-06-24 02:24:00,53.0,48.0,-100.00,SW,225,5.0,8.0,81,-99.99,,,-99.99,,2013-06-24 09:24:00,
2013-06-24 02:44:00,53.0,47.0,-100.00,SW,225,5.0,9.0,79,-99.99,,,-99.99,,2013-06-24 09:44:00,
2013-06-24 02:57:00,53.0,47.0,-100.00,SW,225,4.0,6.0,79,-99.99,,,-99.99,,2013-06-24 09:57:00,
2013-06-24 03:12:00,52.0,47.0,-100.00,SW,225,6.0,8.0,80,-99.99,,,-99.99,,2013-06-24 10:12:00,
2013-06-24 03:22:00,52.0,47.0,-100.00,SW,225,4.0,6.0,81,-99.99,,,-99.99,,2013-06-24 10:22:00,
2013-06-24 03:33:00,52.0,47.0,-100.00,SW,225,4.0,6.0,81,-99.99,,,-99.99,,2013-06-24 10:33:00,
2013-06-24 03:45:00,52.0,47.0,-100.00,SW,225,3.0,5.0,82,-99.99,,,-99.99,,2013-06-24 10:45:00,
2013-06-24 03:55:00,52.0,46.0,-100.00,South,180,4.0,6.0,81,-99.99,,,-99.99,,2013-06-24 10:55:00,
2013-06-24 04:12:00,52.0,46.0,-100.00,South,180,4.0,7.0,80,-99.99,,,-99.99,,2013-06-24 11:12:00,
2013-06-24 04:25:00,52.0,45.0,-100.00,SW,225,5.0,9.0,79,-99.99,,,-99.99,,2013-06-24 11:25:00,
2013-06-24 04:43:00,51.0,45.0,-100.00,SW,225,5.0,8.0,80,-99.99,,,-99.99,,2013-06-24 11:43:00,
2013-06-24 04:56:00,51.0,45.0,-100.00,South,180,4.0,7.0,80,-99.99,,,-99.99,,2013-06-24 11:56:00,
2013-06-24 05:12:00,51.0,45.0,-100.00,SW,225,5.0,6.0,80,-99.99,,,-99.99,,2013-06-24 12:12:00,
2013-06-24 05:23:00,51.0,45.0,-100.00,SW,225,5.0,7.0,81,-99.99,,,-99.99,,2013-06-24 12:23:00,
2013-06-24 06:02:00,51.0,45.0,-100.00,SW,225,4.0,6.0,80,-99.99,,,-99.99,,2013-06-24 13:02:00,
2013-06-24 06:22:00,51.0,45.0,-100.00,South,180,8.0,11.0,79,-99.99,,,-99.99,,2013-06-24 13:22:00,
2013-06-24 06:32:00,52.0,43.0,-100.00,South,180,9.0,20.0,72,-99.99,,,-99.99,,2013-06-24 13:32:00,
2013-06-24 06:42:00,52.0,43.0,-100.00,SW,225,8.0,12.0,72,-99.99,,,-99.99,,2013-06-24 13:42:00,
2013-06-24 07:01:00,52.0,43.0,-100.00,SW,225,7.0,10.0,71,-99.99,,,-99.99,,2013-06-24 14:01:00,
2013-06-24 07:22:00,52.0,42.0,-100.00,SW,225,6.0,9.0,69,-99.99,,,-99.99,,2013-06-24 14:22:00,
2013-06-24 07:34:00,51.0,42.0,-100.00,SW,225,3.0,8.0,71,-99.99,,,-99.99,,2013-06-24 14:34:00,
2013-06-24 07:43:00,51.0,44.0,-100.00,SW,225,4.0,6.0,76,-99.99,,,-99.99,,2013-06-24 14:43:00,
2013-06-24 07:57:00,50.0,44.0,-100.00,SW,225,3.0,4.0,78,-99.99,,,-99.99,,2013-06-24 14:57:00,
2013-06-24 08:12:00,50.0,44.0,-100.00,SW,225,3.0,4.0,79,-99.99,,,-99.99,,2013-06-24 15:12:00,
2013-06-24 08:24:00,50.0,44.0,-100.00,South,180,2.0,4.0,79,-99.99,,,-99.99,,2013-06-24 15:24:00,
2013-06-24 08:55:00,51.0,45.0,-100.00,East,90,2.0,3.0,81,-99.99,,,-99.99,,2013-06-24 15:55:00,
2013-06-24 09:11:00,51.0,46.0,-100.00,SW,225,2.0,5.0,82,-99.99,,,-99.99,,2013-06-24 16:11:00,
2013-06-24 09:23:00,51.0,45.0,-100.00,South,180,4.0,7.0,82,-99.99,,,-99.99,,2013-06-24 16:23:00,
2013-06-24 09:33:00,51.0,45.0,-100.00,South,180,4.0,7.0,82,-99.99,,,-99.99,,2013-06-24 16:33:00,
2013-06-24 09:43:00,50.0,45.0,-100.00,SW,225,1.0,4.0,81,-99.99,,,-99.99,,2013-06-24 16:43:00,
2013-06-24 09:55:00,49.0,45.0,-100.00,NW,315,4.0,7.0,86,-99.99,,,-99.99,,2013-06-24 16:55:00,
2013-06-24 10:12:00,48.0,44.0,-100.00,North,0,4.0,8.0,87,-99.99,,,-99.99,,2013-06-24 17:12:00,
2013-06-24 10:23:00,48.0,45.0,-100.00,North,0,5.0,7.0,89,-99.99,,,-99.99,,2013-06-24 17:23:00,
2013-06-24 10:33:00,48.0,45.0,-100.00,North,0,5.0,7.0,89,-99.99,,,-99.99,,2013-06-24 17:33:00,
2013-06-24 10:56:00,48.0,45.0,-100.00,North,0,3.0,6.0,89,-99.99,,,-99.99,,2013-06-24 17:56:00,
2013-06-24 11:23:00,49.0,46.0,-100.00,North,0,3.0,4.0,89,-99.99,,,-99.99,,2013-06-24 18:23:00,
2013-06-24 12:12:00,50.0,47.0,-100.00,North,0,3.0,4.0,89,-99.99,,,-99.99,,2013-06-24 19:12:00,
2013-06-24 12:24:00,51.0,48.0,-100.00,NE,45,5.0,9.0,88,-99.99,,,-99.99,,2013-06-24 19:24:00,
2013-06-24 12:42:00,52.0,48.0,-100.00,North,0,1.0,6.0,87,-99.99,,,-99.99,,2013-06-24 19:42:00,
2013-06-24 12:54:00,53.0,47.0,-100.00,NE,45,4.0,7.0,80,-99.99,,,-99.99,,2013-06-24 19:54:00,
2013-06-24 13:11:00,54.0,45.0,-100.00,North,0,4.0,8.0,70,-99.99,,,-99.99,,2013-06-24 20:11:00,
2013-06-24 13:33:00,55.0,46.0,-100.00,NE,45,4.0,8.0,71,-99.99,,,-99.99,,2013-06-24 20:33:00,
2013-06-24 13:43:00,55.0,45.0,-100.00,NE,45,7.0,11.0,68,-99.99,,,-99.99,,2013-06-24 20:43:00,
2013-06-24 14:01:00,53.0,45.0,-100.00,North,0,9.0,13.0,75,-99.99,,,-99.99,,2013-06-24 21:01:00,
2013-06-24 14:12:00,52.0,46.0,-100.00,NW,315,9.0,11.0,80,-99.99,,,-99.99,,2013-06-24 21:12:00,
2013-06-24 14:23:00,52.0,47.0,-100.00,NW,315,5.0,8.0,82,-99.99,,,-99.99,,2013-06-24 21:23:00,
2013-06-24 14:33:00,52.0,47.0,-100.00,NW,315,5.0,8.0,82,-99.99,,,-99.99,,2013-06-24 21:33:00,
2013-06-24 14:44:00,53.0,48.0,-100.00,North,0,6.0,9.0,83,-99.99,,,-99.99,,2013-06-24 21:44:00,
2013-06-24 14:54:00,52.0,47.0,-100.00,North,0,4.0,9.0,83,-99.99,,,-99.99,,2013-06-24 21:54:00,
2013-06-24 15:12:00,52.0,47.0,-100.00,North,0,4.0,6.0,82,-99.99,,,-99.99,,2013-06-24 22:12:00,
2013-06-24 15:22:00,52.0,47.0,-100.00,North,0,4.0,6.0,82,-99.99,,,-99.99,,2013-06-24 22:22:00,
2013-06-24 15:33:00,53.0,48.0,-100.00,North,0,6.0,7.0,82,-99.99,,,-99.99,,2013-06-24 22:33:00,
2013-06-24 15:44:00,54.0,48.0,-100.00,North,0,2.0,7.0,80,-99.99,,,-99.99,,2013-06-24 22:44:00,
2013-06-24 15:55:00,55.0,47.0,-100.00,North,0,3.0,7.0,76,-99.99,,,-99.99,,2013-06-24 22:55:00,
2013-06-24 16:02:00,55.0,47.0,-100.00,North,0,3.0,7.0,76,-99.99,,,-99.99,,2013-06-24 23:02:00,
2013-06-24 16:11:00,55.0,47.0,-100.00,North,0,3.0,6.0,72,-99.99,,,-99.99,,2013-06-24 23:11:00,
2013-06-24 16:23:00,57.0,47.0,-100.00,North,0,4.0,7.0,69,-99.99,,,-99.99,,2013-06-24 23:23:00,
2013-06-24 16:33:00,57.0,47.0,-100.00,North,0,4.0,7.0,69,-99.99,,,-99.99,,2013-06-24 23:33:00,
2013-06-24 16:43:00,58.0,46.0,-100.00,East,90,3.0,8.0,64,-99.99,,,-99.99,,2013-06-24 23:43:00,
2013-06-24 16:54:00,59.0,45.0,-100.00,South,180,3.0,5.0,60,-99.99,,,-99.99,,2013-06-24 23:54:00,
2013-06-24 17:11:00,59.0,45.0,-100.00,North,0,4.0,7.0,61,-99.99,,,-99.99,,2013-06-25 00:11:00,
2013-06-24 17:22:00,59.0,45.0,-100.00,SW,225,4.0,5.0,58,-99.99,,,-99.99,,2013-06-25 00:22:00,
2013-06-24 17:44:00,59.0,45.0,-100.00,SW,225,4.0,5.0,58,-99.99,,,-99.99,,2013-06-25 00:44:00,
2013-06-24 18:13:00,60.0,42.0,-100.00,South,180,9.0,14.0,52,-99.99,,,-99.99,,2013-06-25 01:13:00,
2013-06-24 18:22:00,60.0,42.0,-100.00,SW,225,6.0,9.0,52,-99.99,,,-99.99,,2013-06-25 01:22:00,
2013-06-24 18:44:00,59.0,42.0,-100.00,SW,225,12.0,15.0,53,-99.99,,,-99.99,,2013-06-25 01:44:00,
2013-06-24 18:55:00,59.0,43.0,-100.00,SW,225,6.0,12.0,55,-99.99,,,-99.99,,2013-06-25 01:55:00,
2013-06-24 19:11:00,59.0,43.0,-100.00,SW,225,4.0,10.0,55,-99.99,,,-99.99,,2013-06-25 02:11:00,
2013-06-24 19:43:00,59.0,43.0,-100.00,SW,225,8.0,9.0,55,-99.99,,,-99.99,,2013-06-25 02:43:00,
2013-06-24 19:56:00,59.0,43.0,-100.00,SW,225,7.0,15.0,57,-99.99,,,-99.99,,2013-06-25 02:56:00,
2013-06-24 20:12:00,59.0,43.0,-100.00,SW,225,7.0,14.0,57,-99.99,,,-99.99,,2013-06-25 03:12:00,
2013-06-24 20:44:00,57.0,45.0,-100.00,SW,225,4.0,9.0,64,-99.99,,,-99.99,,2013-06-25 03:44:00,
2013-06-24 21:11:00,56.0,46.0,-100.00,SW,225,8.0,14.0,67,-99.99,,,-99.99,,2013-06-25 04:11:00,
2013-06-24 21:22:00,56.0,46.0,-100.00,SW,225,8.0,15.0,69,-99.99,,,-99.99,,2013-06-25 04:22:00,
2013-06-24 21:42:00,56.0,46.0,-100.00,SW,225,8.0,15.0,69,-99.99,,,-99.99,,2013-06-25 04:42:00,
2013-06-24 21:52:00,55.0,47.0,-100.00,SW,225,7.0,14.0,72,-99.99,,,-99.99,,2013-06-25 04:52:00,
2013-06-24 22:11:00,55.0,47.0,-100.00,SW,225,9.0,15.0,74,-99.99,,,-99.99,,2013-06-25 05:11:00,
2013-06-24 22:22:00,54.0,47.0,-100.00,SW,225,6.0,11.0,77,-99.99,,,-99.99,,2013-06-25 05:22:00,
2013-06-24 22:44:00,54.0,48.0,-100.00,SW,225,4.0,11.0,78,-99.99,,,-99.99,,2013-06-25 05:44:00,
2013-06-24 22:52:00,54.0,47.0,-100.00,SW,225,4.0,9.0,78,-99.99,,,-99.99,,2013-06-25 05:52:00,
2013-06-24 23:11:00,54.0,48.0,-100.00,South,180,3.0,7.0,79,-99.99,,,-99.99,,2013-06-25 06:11:00,
2013-06-24 23:21:00,54.0,47.0,-100.00,South,180,4.0,6.0,79,-99.99,,,-99.99,,2013-06-25 06:21:00,
2013-06-24 23:33:00,54.0,47.0,-100.00,South,180,4.0,6.0,79,-99.99,,,-99.99,,2013-06-25 06:33:00,
2013-06-24 23:43:00,54.0,47.0,-100.00,South,180,4.0,9.0,79,-99.99,,,-99.99,,2013-06-25 06:43:00,
2013-06-24 23:52:00,54.0,48.0,-100.00,South,180,5.0,8.0,80,-99.99,,,-99.99,,2013-06-25 06:52:00,